Time;durP1;ratioP1;P1;durP2;ratioP2;P2;SDS_P1;SDS_P2;PMS_P1;PMS_P2;Temp;Humidity;BMP_temperature;BMP_pressure;BME280_temperature;BME280_humidity;BME280_pressure;Samples;Min_cycle;Max_cycle;Signal;HPM_P1;HPM_P2
2022/03/17 00:01:01;;;;;;;2.47;1.00;;;20.40;52.90;;;;;;4988784;28;20201;-52
2022/03/17 00:03:32;;;;;;;2.47;1.08;;;20.40;52.90;;;;;;4988750;28;20289;-57
2022/03/17 00:06:05;;;;;;;2.10;1.20;;;20.40;52.90;;;;;;4988842;28;20275;-54
2022/03/17 00:08:36;;;;;;;1.25;0.77;;;20.50;52.90;;;;;;4989283;28;20906;-57
2022/03/17 00:11:07;;;;;;;2.33;0.90;;;20.50;52.90;;;;;;4987151;28;20252;-61
2022/03/17 00:13:37;;;;;;;1.73;1.00;;;20.50;52.90;;;;;;4989116;28;20614;-60
2022/03/17 00:16:09;;;;;;;2.63;0.98;;;20.50;52.90;;;;;;4988676;28;20878;-61
2022/03/17 00:18:39;;;;;;;2.58;1.00;;;20.50;52.90;;;;;;4988780;28;20210;-61
2022/03/17 00:21:12;;;;;;;1.90;1.17;;;20.60;53.00;;;;;;4988630;28;20201;-61
2022/03/17 00:23:42;;;;;;;2.78;1.20;;;20.60;53.00;;;;;;4989185;28;20550;-57
2022/03/17 00:26:13;;;;;;;1.63;0.85;;;20.60;53.00;;;;;;4988658;28;20225;-61
2022/03/17 00:28:43;;;;;;;1.85;0.95;;;20.60;53.00;;;;;;4988198;28;20704;-61
2022/03/17 00:31:16;;;;;;;2.78;1.00;;;20.60;53.00;;;;;;4988870;28;20193;-60
2022/03/17 00:33:46;;;;;;;2.75;1.23;;;20.60;53.10;;;;;;4988155;28;20601;-60
2022/03/17 00:36:19;;;;;;;2.92;1.02;;;20.60;53.10;;;;;;4988351;28;20221;-61
2022/03/17 00:38:49;;;;;;;2.67;1.23;;;20.70;53.20;;;;;;4988002;28;20197;-61
2022/03/17 00:41:20;;;;;;;2.53;1.35;;;20.70;53.20;;;;;;4989064;28;20256;-57
2022/03/17 00:43:50;;;;;;;1.63;0.98;;;20.70;53.10;;;;;;4988133;28;20775;-60
2022/03/17 00:46:22;;;;;;;2.25;0.80;;;20.70;53.20;;;;;;4987719;28;20225;-61
2022/03/17 00:48:52;;;;;;;1.85;0.90;;;20.80;53.20;;;;;;4988995;28;20224;-59
2022/03/17 00:51:25;;;;;;;2.63;1.10;;;20.80;53.10;;;;;;4991851;28;20596;-57
2022/03/17 00:53:55;;;;;;;2.13;1.08;;;20.80;53.10;;;;;;4992311;28;20208;-61
2022/03/17 00:56:26;;;;;;;1.15;0.88;;;20.80;53.10;;;;;;4991919;28;20221;-61
2022/03/17 00:58:57;;;;;;;2.70;0.80;;;20.90;53.20;;;;;;4992325;28;20648;-60
2022/03/17 01:01:28;;;;;;;1.70;0.90;;;20.90;53.10;;;;;;4991495;28;20201;-61
2022/03/17 01:03:58;;;;;;;1.08;0.93;;;20.90;53.20;;;;;;4991814;28;20661;-59
2022/03/17 01:06:31;;;;;;;1.73;1.00;;;21.00;53.20;;;;;;4991057;28;20311;-56
2022/03/17 01:09:01;;;;;;;1.55;0.75;;;21.00;53.10;;;;;;4991440;28;20197;-59
2022/03/17 01:11:32;;;;;;;2.85;0.95;;;21.00;53.10;;;;;;4991843;28;20201;-60
2022/03/17 01:14:03;;;;;;;2.13;0.85;;;21.10;53.00;;;;;;4991911;28;20201;-61
2022/03/17 01:16:33;;;;;;;1.85;0.88;;;21.10;53.00;;;;;;4991199;28;20217;-61
2022/03/17 01:19:04;;;;;;;3.10;1.00;;;21.20;52.90;;;;;;4991745;28;20268;-60
2022/03/17 01:21:36;;;;;;;2.88;1.00;;;21.20;52.90;;;;;;4991844;28;20341;-60
2022/03/17 01:24:07;;;;;;;1.42;0.77;;;21.20;52.90;;;;;;4991671;28;20198;-60
2022/03/17 01:26:38;;;;;;;3.05;0.88;;;21.20;52.90;;;;;;4991235;28;20225;-53
2022/03/17 01:29:08;;;;;;;2.40;1.15;;;21.20;52.80;;;;;;4991433;28;20193;-60
2022/03/17 01:31:39;;;;;;;3.15;1.08;;;21.30;52.70;;;;;;4991715;28;20607;-60
2022/03/17 01:34:09;;;;;;;2.90;1.00;;;21.20;52.60;;;;;;4990485;28;20205;-59
2022/03/17 01:36:42;;;;;;;2.75;1.00;;;21.30;52.70;;;;;;4990535;28;20747;-59
2022/03/17 01:39:13;;;;;;;2.47;1.15;;;21.30;52.70;;;;;;4991535;28;20260;-58
2022/03/17 01:41:43;;;;;;;2.65;1.00;;;21.30;52.60;;;;;;4990843;28;20201;-58
2022/03/17 01:44:14;;;;;;;3.33;0.90;;;21.40;52.60;;;;;;4990835;28;20197;-54
2022/03/17 01:49:39;;;;;;;2.58;1.08;;;21.40;52.40;;;;;;4967226;28;20205;-54
2022/03/17 01:52:12;;;;;;;2.67;1.08;;;21.40;52.40;;;;;;4990903;28;20620;-56
2022/03/17 01:54:43;;;;;;;3.45;1.08;;;21.50;52.40;;;;;;4990351;28;20197;-59
2022/03/17 01:57:15;;;;;;;2.42;1.02;;;21.50;52.40;;;;;;4990645;28;20272;-59
2022/03/17 01:59:46;;;;;;;1.48;0.90;;;21.50;52.40;;;;;;4990851;28;20256;-59
2022/03/17 02:02:17;;;;;;;3.78;1.10;;;21.50;52.30;;;;;;4989814;28;20229;-53
2022/03/17 02:04:49;;;;;;;1.75;0.90;;;21.50;52.20;;;;;;4990862;28;20198;-59
2022/03/17 02:07:23;;;;;;;1.65;0.90;;;21.50;52.00;;;;;;4990392;28;20233;-60
2022/03/17 02:09:53;;;;;;;1.98;1.10;;;21.60;51.90;;;;;;4990819;28;20224;-56
2022/03/17 02:15:12;;;;;;;3.20;1.33;;;21.60;51.90;;;;;;4989377;28;20208;-55
2022/03/17 02:17:43;;;;;;;1.58;0.90;;;21.60;51.90;;;;;;4989649;28;20701;-56
2022/03/17 02:20:17;;;;;;;5.85;1.25;;;21.60;51.90;;;;;;4990263;28;20665;-60
2022/03/17 02:22:51;;;;;;;1.20;0.80;;;21.60;51.70;;;;;;4990628;28;20216;-60
2022/03/17 02:25:34;;;;;;;2.45;1.02;;;21.70;51.80;;;;;;4990283;28;20264;-60
2022/03/17 02:28:05;;;;;;;3.90;1.33;;;21.70;51.80;;;;;;4990573;28;20657;-61
2022/03/17 02:30:37;;;;;;;4.15;1.17;;;21.70;51.80;;;;;;4990393;28;20611;-59
2022/03/17 02:33:09;;;;;;;3.50;1.42;;;21.70;51.70;;;;;;4990652;28;20198;-60
2022/03/17 02:35:41;;;;;;;2.75;1.10;;;21.70;51.60;;;;;;4989049;28;20205;-58
2022/03/17 02:38:13;;;;;;;2.15;0.98;;;21.70;51.60;;;;;;4989940;28;20197;-61
2022/03/17 02:40:48;;;;;;;3.35;1.30;;;21.80;51.70;;;;;;4989646;28;20201;-61
2022/03/17 02:43:19;;;;;;;3.03;1.17;;;21.80;51.50;;;;;;4989969;28;20193;-57
2022/03/17 02:45:50;;;;;;;1.95;1.05;;;21.80;51.50;;;;;;4990172;28;20225;-61
2022/03/17 02:48:20;;;;;;;4.72;1.33;;;21.80;51.40;;;;;;4989223;28;20740;-61
2022/03/17 02:50:51;;;;;;;3.50;1.35;;;21.90;51.30;;;;;;4990324;28;20248;-61
2022/03/17 02:53:22;;;;;;;3.20;1.35;;;21.90;51.00;;;;;;4989759;28;20271;-61
2022/03/17 02:55:54;;;;;;;3.13;1.20;;;21.90;50.90;;;;;;4989572;28;20226;-61
2022/03/17 02:58:25;;;;;;;1.63;1.13;;;21.90;50.90;;;;;;4989187;28;20257;-57
2022/03/17 03:00:55;;;;;;;2.55;1.27;;;22.00;51.00;;;;;;4990338;28;20664;-61
2022/03/17 03:03:26;;;;;;;4.57;1.77;;;22.00;50.90;;;;;;4990189;28;20194;-59
2022/03/17 03:05:56;;;;;;;2.47;1.50;;;22.00;50.70;;;;;;4989365;28;20229;-60
2022/03/17 03:08:27;;;;;;;5.65;1.40;;;22.00;50.80;;;;;;4989658;28;20189;-58
2022/03/17 03:11:00;;;;;;;4.82;1.42;;;22.10;50.70;;;;;;4989010;28;20695;-60
2022/03/17 03:13:30;;;;;;;2.83;1.33;;;22.10;50.70;;;;;;4988411;28;20210;-60
2022/03/17 03:16:01;;;;;;;3.92;1.58;;;22.10;50.80;;;;;;4988593;28;20222;-60
2022/03/17 03:18:32;;;;;;;2.40;1.40;;;22.10;50.80;;;;;;4989762;28;20201;-60
2022/03/17 03:21:02;;;;;;;4.20;1.30;;;22.20;50.80;;;;;;4989062;28;21526;-60
2022/03/17 03:23:33;;;;;;;2.65;1.40;;;22.20;50.80;;;;;;4989588;28;20210;-62
2022/03/17 03:26:05;;;;;;;4.07;1.38;;;22.20;50.70;;;;;;4989212;28;20598;-60
2022/03/17 03:28:36;;;;;;;3.78;1.23;;;22.30;50.70;;;;;;4988890;28;20194;-61
2022/03/17 03:31:08;;;;;;;3.80;1.30;;;22.30;50.60;;;;;;4989784;28;20206;-61
2022/03/17 03:33:40;;;;;;;2.40;1.02;;;22.30;50.50;;;;;;4989471;28;20264;-60
2022/03/17 03:38:59;;;;;;;2.30;1.10;;;22.40;50.30;;;;;;4989707;28;20340;-60
2022/03/17 03:41:31;;;;;;;4.68;1.38;;;22.40;50.20;;;;;;4988978;28;20200;-60
2022/03/17 03:44:02;;;;;;;2.40;1.00;;;22.40;50.20;;;;;;4988346;28;20630;-60
2022/03/17 03:46:33;;;;;;;2.50;1.13;;;22.50;50.30;;;;;;4988871;28;20311;-60
2022/03/17 03:49:04;;;;;;;3.13;1.00;;;22.50;50.40;;;;;;4989179;28;20629;-59
2022/03/17 03:51:34;;;;;;;2.20;1.02;;;22.50;50.30;;;;;;4988834;28;20212;-58
2022/03/17 03:54:20;;;;;;;3.25;1.00;;;22.50;50.20;;;;;;4988330;28;20256;-60
2022/03/17 03:56:53;;;;;;;2.60;1.13;;;22.60;50.30;;;;;;4988892;28;20287;-60
2022/03/17 03:59:25;;;;;;;2.30;0.90;;;22.60;50.80;;;;;;4988823;28;20271;-60
2022/03/17 04:01:56;;;;;;;2.22;1.08;;;22.60;50.30;;;;;;4988705;28;20622;-60
2022/03/17 04:04:27;;;;;;;2.78;1.10;;;22.60;50.20;;;;;;4989640;28;20263;-60
2022/03/17 04:07:00;;;;;;;2.10;1.30;;;22.60;50.20;;;;;;4988516;28;20221;-60
2022/03/17 04:09:33;;;;;;;2.42;1.15;;;22.70;50.10;;;;;;4989494;28;20197;-59
2022/03/17 04:12:07;;;;;;;2.80;1.30;;;22.70;50.00;;;;;;4988891;28;20202;-60
2022/03/17 04:14:38;;;;;;;3.10;1.20;;;22.70;50.00;;;;;;4989150;28;20201;-58
2022/03/17 04:17:09;;;;;;;3.25;1.10;;;22.70;50.00;;;;;;4988380;28;20209;-61
2022/03/17 04:19:40;;;;;;;3.00;1.15;;;22.80;49.80;;;;;;4988431;28;20228;-61
2022/03/17 04:22:10;;;;;;;2.95;1.40;;;22.80;49.80;;;;;;4988610;28;20249;-60
2022/03/17 04:24:41;;;;;;;2.08;1.20;;;22.80;49.80;;;;;;4990714;28;20197;-57
2022/03/17 04:27:13;;;;;;;2.90;1.00;;;22.80;49.80;;;;;;4992990;28;20642;-61
2022/03/17 04:29:44;;;;;;;4.20;1.17;;;22.80;49.70;;;;;;4991975;28;20194;-55
2022/03/17 04:32:14;;;;;;;3.70;1.13;;;22.90;49.50;;;;;;4992725;28;20826;-50
2022/03/17 04:34:45;;;;;;;5.78;1.15;;;22.90;47.30;;;;;;4991237;28;20228;-50
2022/03/17 04:37:16;;;;;;;3.88;1.10;;;22.80;45.90;;;;;;4992849;28;20232;-51
2022/03/17 04:39:46;;;;;;;6.18;1.10;;;22.70;45.00;;;;;;4992466;28;20616;-53
2022/03/17 04:42:19;;;;;;;2.47;1.00;;;22.60;44.70;;;;;;4992295;28;20205;-62
2022/03/17 04:44:49;;;;;;;3.45;0.98;;;22.50;44.70;;;;;;4992353;28;20202;-59
2022/03/17 04:47:21;;;;;;;5.78;1.27;;;22.40;45.10;;;;;;4992082;28;20220;-66
2022/03/17 04:49:52;;;;;;;3.25;0.85;;;22.40;45.50;;;;;;4992497;28;20197;-70
2022/03/17 04:55:10;;;;;;;2.35;1.00;;;22.40;46.10;;;;;;4992132;28;20276;-60
2022/03/17 04:57:42;;;;;;;4.13;1.92;;;22.30;46.20;;;;;;4991772;28;20232;-67
2022/03/17 05:00:14;;;;;;;6.38;2.30;;;22.30;46.10;;;;;;4993307;28;20213;-67
2022/03/17 05:02:45;;;;;;;3.47;2.63;;;22.30;46.30;;;;;;4991215;28;20267;-66
2022/03/17 05:05:15;;;;;;;5.95;3.08;;;22.30;46.60;;;;;;4992127;28;20201;-67
2022/03/17 05:07:46;;;;;;;6.63;3.28;;;22.30;46.80;;;;;;4991028;28;20736;-66
2022/03/17 05:10:16;;;;;;;3.97;2.95;;;22.30;46.70;;;;;;4991334;28;20202;-67
2022/03/17 05:12:49;;;;;;;6.03;3.50;;;22.30;46.90;;;;;;4991849;28;20198;-64
2022/03/17 05:15:20;;;;;;;3.40;2.83;;;22.30;47.00;;;;;;4991497;28;20202;-67
2022/03/17 05:17:51;;;;;;;4.38;3.40;;;22.30;47.10;;;;;;4991195;28;20252;-68
2022/03/17 05:20:21;;;;;;;4.40;2.92;;;22.40;47.20;;;;;;4991121;28;20193;-64
2022/03/17 05:22:52;;;;;;;4.82;3.00;;;22.40;47.20;;;;;;4991677;28;20193;-67
2022/03/17 05:25:23;;;;;;;4.40;2.90;;;22.40;47.10;;;;;;4991059;28;20205;-67
2022/03/17 05:27:55;;;;;;;5.80;3.08;;;22.40;47.20;;;;;;4992618;28;20243;-68
2022/03/17 05:30:26;;;;;;;4.47;2.70;;;22.40;47.30;;;;;;4990995;28;20193;-64
2022/03/17 05:32:57;;;;;;;3.53;3.05;;;22.40;47.40;;;;;;4991284;28;20271;-68
2022/03/17 05:35:28;;;;;;;4.88;2.88;;;22.40;47.30;;;;;;4990982;28;20198;-69
2022/03/17 05:38:00;;;;;;;4.38;2.53;;;22.40;47.30;;;;;;4991007;28;20727;-60
2022/03/17 05:40:31;;;;;;;3.75;2.75;;;22.40;47.30;;;;;;4991569;28;20201;-70
2022/03/17 05:43:06;;;;;;;5.65;2.75;;;22.40;47.50;;;;;;4991438;28;20252;-66
2022/03/17 05:45:37;;;;;;;3.65;2.50;;;22.40;47.50;;;;;;4990680;28;20264;-71
2022/03/17 05:48:08;;;;;;;4.28;2.47;;;22.40;47.60;;;;;;4991179;28;20233;-71
2022/03/17 05:50:40;;;;;;;3.65;2.50;;;22.40;47.60;;;;;;4991699;28;20201;-69
2022/03/17 05:53:11;;;;;;;3.58;2.30;;;22.40;47.70;;;;;;4991436;28;20201;-69
2022/03/17 05:55:42;;;;;;;2.97;2.38;;;22.40;47.80;;;;;;4990922;28;20190;-69
2022/03/17 05:58:17;;;;;;;4.07;2.30;;;22.40;47.80;;;;;;4991468;28;20260;-64
2022/03/17 06:00:48;;;;;;;4.32;2.53;;;22.40;47.80;;;;;;4991652;28;20256;-71
2022/03/17 06:03:18;;;;;;;2.50;2.30;;;22.40;47.80;;;;;;4990658;28;20194;-69
2022/03/17 06:05:49;;;;;;;3.95;2.38;;;22.30;48.30;;;;;;4991309;28;20280;-65
2022/03/17 06:08:20;;;;;;;3.08;2.30;;;22.40;48.20;;;;;;4990496;28;20221;-68
2022/03/17 06:10:50;;;;;;;3.08;2.15;;;22.40;47.90;;;;;;4990967;28;20202;-68
2022/03/17 06:13:23;;;;;;;3.72;2.20;;;22.30;47.90;;;;;;4990772;28;20197;-69
2022/03/17 06:15:53;;;;;;;2.70;2.20;;;22.30;47.90;;;;;;4991041;28;20213;-69
2022/03/17 06:19:12;;;;;;;5.05;2.50;;;22.30;47.90;;;;;;4990634;28;20194;-60
2022/03/17 06:21:42;;;;;;;3.83;2.40;;;22.30;47.90;;;;;;4990697;28;20285;-69
2022/03/17 06:24:13;;;;;;;3.45;2.17;;;22.30;47.90;;;;;;4990763;28;20284;-69
2022/03/17 06:26:43;;;;;;;2.70;1.90;;;22.30;47.90;;;;;;4990183;28;20248;-69
2022/03/17 06:29:16;;;;;;;4.10;2.08;;;22.20;47.90;;;;;;4990402;28;20673;-69
2022/03/17 06:31:46;;;;;;;2.72;2.15;;;22.20;47.90;;;;;;4990937;28;20256;-69
2022/03/17 06:34:17;;;;;;;2.10;1.90;;;22.20;48.00;;;;;;4992404;28;20206;-68
2022/03/17 06:36:47;;;;;;;2.78;1.90;;;22.20;48.00;;;;;;4987069;28;20472;-69
2022/03/17 06:39:18;;;;;;;2.08;1.60;;;22.20;48.00;;;;;;4982768;28;20252;-67
2022/03/17 06:41:48;;;;;;;3.10;1.90;;;22.20;48.00;;;;;;4991677;28;20255;-67
2022/03/17 06:44:21;;;;;;;3.05;2.15;;;22.20;48.10;;;;;;4990974;28;20197;-68
2022/03/17 06:46:52;;;;;;;3.70;2.00;;;22.10;48.10;;;;;;4990860;28;20280;-67
2022/03/17 06:49:22;;;;;;;1.70;1.60;;;22.10;48.10;;;;;;4991053;28;20202;-68
2022/03/17 06:51:53;;;;;;;2.42;1.60;;;22.10;48.30;;;;;;4991495;28;20615;-65
2022/03/17 06:54:23;;;;;;;2.85;2.00;;;22.10;48.30;;;;;;4991389;28;20201;-68
2022/03/17 06:56:54;;;;;;;3.25;1.90;;;22.10;48.40;;;;;;4991397;28;20283;-67
2022/03/17 06:59:26;;;;;;;2.80;1.80;;;22.10;48.40;;;;;;5003455;23;20221;-57
2022/03/17 07:01:57;;;;;;;2.65;1.63;;;22.10;48.40;;;;;;4990723;28;20248;-58
2022/03/17 07:04:27;;;;;;;3.08;1.80;;;22.10;48.40;;;;;;4990090;28;20212;-57
2022/03/17 07:06:58;;;;;;;2.15;1.70;;;22.00;48.30;;;;;;4980778;28;20218;-57
2022/03/17 07:09:29;;;;;;;2.40;1.80;;;22.00;48.30;;;;;;4952370;28;20282;-57
2022/03/17 07:11:59;;;;;;;2.90;1.95;;;22.00;48.40;;;;;;4960072;28;20201;-57
2022/03/17 07:14:32;;;;;;;2.90;1.50;;;22.00;48.40;;;;;;4971636;28;20722;-58
2022/03/17 07:17:02;;;;;;;3.25;1.80;;;22.00;48.40;;;;;;4966479;28;20217;-57
2022/03/17 07:19:33;;;;;;;3.20;1.73;;;22.00;48.40;;;;;;4972700;28;20222;-57
2022/03/17 07:22:04;;;;;;;3.38;1.80;;;21.90;48.40;;;;;;4971636;28;20205;-58
2022/03/17 07:24:35;;;;;;;2.60;1.80;;;21.90;48.50;;;;;;4971634;28;20273;-58
2022/03/17 07:27:05;;;;;;;2.10;1.90;;;21.90;48.50;;;;;;4970659;28;20249;-57
2022/03/17 07:29:39;;;;;;;2.95;1.58;;;21.90;48.60;;;;;;4971158;28;20264;-57
2022/03/17 07:32:10;;;;;;;2.75;1.60;;;21.90;48.60;;;;;;4971373;28;20206;-57
2022/03/17 07:34:40;;;;;;;1.95;1.58;;;21.80;48.60;;;;;;4983509;28;20205;-57
2022/03/17 07:37:11;;;;;;;2.70;1.50;;;21.80;48.70;;;;;;4990081;28;20217;-58
2022/03/17 07:39:42;;;;;;;2.15;1.48;;;21.80;48.80;;;;;;4980522;28;20668;-57
2022/03/17 07:42:13;;;;;;;3.88;1.60;;;21.80;48.80;;;;;;4970833;28;20208;-58
2022/03/17 07:44:46;;;;;;;3.60;1.50;;;21.80;48.80;;;;;;4971313;28;20282;-58
2022/03/17 07:47:17;;;;;;;2.97;1.88;;;21.70;48.80;;;;;;4971186;28;20230;-58
2022/03/17 07:49:50;;;;;;;2.47;1.58;;;21.70;48.80;;;;;;4983497;28;20197;-58
2022/03/17 07:52:21;;;;;;;3.53;1.70;;;21.80;49.00;;;;;;4990534;28;20417;-58
2022/03/17 07:54:52;;;;;;;2.53;1.58;;;21.70;48.90;;;;;;4990477;28;20201;-58
2022/03/17 07:57:23;;;;;;;2.40;1.60;;;21.70;48.90;;;;;;4987878;28;20276;-57
2022/03/17 07:59:55;;;;;;;2.13;1.52;;;21.70;48.90;;;;;;5002528;23;20278;-66
2022/03/17 08:02:26;;;;;;;3.03;1.60;;;21.70;48.90;;;;;;5010064;28;20267;-62
2022/03/17 08:04:57;;;;;;;1.90;1.50;;;21.70;48.90;;;;;;5009383;28;20201;-66
2022/03/17 08:07:28;;;;;;;2.22;1.65;;;21.60;48.90;;;;;;5009558;28;20846;-66
2022/03/17 08:09:59;;;;;;;1.67;1.27;;;21.60;48.90;;;;;;5009969;28;20270;-67
2022/03/17 08:12:30;;;;;;;2.72;1.70;;;21.60;49.00;;;;;;5010253;28;20280;-68
2022/03/17 08:15:03;;;;;;;2.40;1.60;;;21.60;49.00;;;;;;5010153;28;20690;-65
2022/03/17 08:17:34;;;;;;;1.63;1.38;;;21.60;49.00;;;;;;5007474;28;20213;-67
2022/03/17 08:20:07;;;;;;;2.20;1.70;;;21.60;49.00;;;;;;5003834;28;20197;-68
2022/03/17 08:22:38;;;;;;;2.42;1.38;;;21.50;48.90;;;;;;5009093;28;20223;-68
2022/03/17 08:25:09;;;;;;;1.85;1.48;;;21.50;48.90;;;;;;4990015;28;20617;-65
2022/03/17 08:27:41;;;;;;;1.48;1.20;;;21.50;49.10;;;;;;4990209;28;20237;-68
2022/03/17 08:30:14;;;;;;;1.90;1.40;;;21.50;49.10;;;;;;4990029;28;20197;-63
2022/03/17 08:32:45;;;;;;;1.73;1.55;;;21.50;49.10;;;;;;4990173;28;20202;-64
2022/03/17 08:35:17;;;;;;;2.22;1.45;;;21.50;49.10;;;;;;5004686;28;20240;-68
2022/03/17 08:37:48;;;;;;;1.90;1.50;;;21.40;49.10;;;;;;5009623;28;20224;-68
2022/03/17 08:40:19;;;;;;;2.05;1.13;;;21.40;49.10;;;;;;5006317;28;20246;-65
2022/03/17 08:42:49;;;;;;;3.58;1.60;;;21.40;49.20;;;;;;5009198;28;20710;-62
2022/03/17 08:50:55;;;;;;;9.07;1.90;;;21.40;49.40;;;;;;5009077;28;20247;-63
2022/03/17 08:53:26;;;;;;;7.88;1.83;;;21.40;49.60;;;;;;5009498;28;20205;-61
2022/03/17 08:55:56;;;;;;;5.72;1.60;;;21.40;49.60;;;;;;5008897;28;20269;-62
2022/03/17 08:58:28;;;;;;;6.63;1.92;;;21.40;49.70;;;;;;5009408;28;20193;-62
2022/03/17 09:01:01;;;;;;;6.25;2.05;;;21.40;49.80;;;;;;5008992;28;20201;-62
2022/03/17 09:03:32;;;;;;;7.03;1.60;;;21.30;49.80;;;;;;5008911;28;20598;-63
2022/03/17 09:06:03;;;;;;;3.13;1.65;;;21.30;50.50;;;;;;5008444;28;20225;-59
2022/03/17 09:08:33;;;;;;;5.38;1.90;;;21.30;50.00;;;;;;5008488;28;20286;-62
2022/03/17 09:11:04;;;;;;;3.58;1.60;;;21.30;50.20;;;;;;5005779;28;20197;-62
2022/03/17 09:13:35;;;;;;;6.63;2.55;;;21.30;50.20;;;;;;5012332;28;20226;-61
2022/03/17 09:16:08;;;;;;;5.13;2.00;;;21.30;50.50;;;;;;5012252;28;20221;-60
2022/03/17 09:18:41;;;;;;;8.05;2.30;;;21.30;50.70;;;;;;5012121;28;20224;-62
2022/03/17 09:21:12;;;;;;;6.35;1.95;;;21.30;50.80;;;;;;4992742;28;20252;-61
2022/03/17 09:23:43;;;;;;;4.60;2.25;;;21.20;50.90;;;;;;4992905;28;20228;-62
2022/03/17 09:26:14;;;;;;;6.45;2.08;;;21.20;50.90;;;;;;4993077;28;20221;-61
2022/03/17 09:28:45;;;;;;;6.97;2.65;;;21.20;50.90;;;;;;4993063;28;20229;-61
2022/03/17 09:31:18;;;;;;;3.67;1.80;;;21.20;51.10;;;;;;4996117;28;20201;-62
2022/03/17 09:33:48;;;;;;;6.05;2.33;;;21.20;51.10;;;;;;5010391;28;20192;-60
2022/03/17 09:36:19;;;;;;;4.68;2.22;;;21.20;51.00;;;;;;5010890;28;20220;-61
2022/03/17 09:39:39;;;;;;;5.60;2.22;;;21.20;51.10;;;;;;5010986;28;20649;-60
2022/03/17 09:41:42;;;;;;;5.10;1.98;;;21.20;51.00;;;;;;5009855;28;20197;-54
2022/03/17 09:44:13;;;;;;;5.65;2.22;;;21.20;51.00;;;;;;5011158;28;20195;-61
2022/03/17 09:46:46;;;;;;;4.72;2.30;;;21.20;50.90;;;;;;5010740;28;20217;-61
2022/03/17 09:49:17;;;;;;;6.82;2.47;;;21.20;51.00;;;;;;5010289;28;20216;-61
2022/03/17 09:51:50;;;;;;;4.65;2.50;;;21.10;51.10;;;;;;5011030;28;20189;-59
2022/03/17 09:54:20;;;;;;;4.90;3.00;;;21.10;51.80;;;;;;5010446;28;20250;-61
2022/03/17 09:56:51;;;;;;;4.30;2.65;;;21.10;51.30;;;;;;5010437;28;20217;-56
2022/03/17 09:59:22;;;;;;;4.68;2.63;;;21.10;51.30;;;;;;5011867;23;20285;-56
2022/03/17 10:01:56;;;;;;;6.00;2.40;;;21.10;51.30;;;;;;4971564;28;20212;-57
2022/03/17 10:04:27;;;;;;;5.95;2.90;;;21.10;51.30;;;;;;4971502;28;20201;-57
2022/03/17 10:06:58;;;;;;;4.07;2.38;;;21.00;51.30;;;;;;4982875;28;20755;-58
2022/03/17 10:09:30;;;;;;;5.60;2.85;;;21.00;51.30;;;;;;4990364;28;20226;-58
2022/03/17 10:12:05;;;;;;;5.05;2.47;;;21.00;51.40;;;;;;4990329;28;20291;-58
2022/03/17 10:14:40;;;;;;;4.18;2.55;;;21.00;51.40;;;;;;4990917;28;20196;-58
2022/03/17 10:17:32;;;;;;;4.60;2.30;;;21.00;51.40;;;;;;4990651;28;20224;-58
2022/03/17 10:20:19;;;;;;;4.50;2.58;;;21.00;51.40;;;;;;4990158;28;20207;-58
2022/03/17 10:22:50;;;;;;;4.78;2.53;;;20.90;51.30;;;;;;4990353;28;20252;-58
2022/03/17 10:25:22;;;;;;;3.90;2.00;;;20.90;51.30;;;;;;4990427;28;20194;-59
2022/03/17 10:27:54;;;;;;;4.70;2.55;;;20.90;51.30;;;;;;4989650;28;20677;-58
2022/03/17 10:30:33;;;;;;;5.10;2.60;;;20.90;51.30;;;;;;4989799;28;20189;-58
2022/03/17 10:33:14;;;;;;;3.92;2.38;;;20.90;51.30;;;;;;4991004;28;20194;-58
2022/03/17 10:35:45;;;;;;;4.15;2.40;;;20.90;51.30;;;;;;4990032;28;20190;-56
2022/03/17 10:38:17;;;;;;;4.50;2.70;;;20.80;51.10;;;;;;4990175;28;20582;-55
2022/03/17 10:41:02;;;;;;;3.85;2.03;;;20.80;51.10;;;;;;4990452;28;20252;-56
2022/03/17 10:43:33;;;;;;;4.78;2.35;;;20.80;51.10;;;;;;4989140;28;20206;-56
2022/03/17 10:46:11;;;;;;;4.35;2.20;;;20.80;51.10;;;;;;4990811;28;20283;-56
2022/03/17 10:49:00;;;;;;;3.92;2.17;;;20.80;51.10;;;;;;4989744;28;20246;-56
2022/03/17 10:51:39;;;;;;;2.95;1.90;;;20.80;51.10;;;;;;4990504;28;20248;-56
2022/03/17 10:54:11;;;;;;;3.05;2.15;;;20.80;51.10;;;;;;4989883;28;20284;-56
2022/03/17 10:56:42;;;;;;;3.40;2.17;;;20.70;51.10;;;;;;4990530;28;20229;-56
2022/03/17 10:59:13;;;;;;;4.60;2.20;;;20.70;51.10;;;;;;4997485;23;20237;-60
2022/03/17 11:01:45;;;;;;;3.35;2.05;;;20.70;51.10;;;;;;4970985;28;20202;-62
2022/03/17 11:04:17;;;;;;;3.28;1.92;;;20.70;51.20;;;;;;4970038;28;20201;-62
2022/03/17 11:06:48;;;;;;;2.55;2.10;;;20.70;51.20;;;;;;4981221;28;20393;-63
2022/03/17 11:09:22;;;;;;;3.17;2.00;;;20.60;51.20;;;;;;4988335;28;20233;-63
2022/03/17 11:11:53;;;;;;;4.30;2.05;;;20.70;51.20;;;;;;4990226;28;20730;-61
2022/03/17 11:14:27;;;;;;;5.30;2.35;;;20.60;51.20;;;;;;4990375;28;20648;-60
2022/03/17 11:17:01;;;;;;;3.88;2.28;;;20.60;51.20;;;;;;4989478;28;20279;-63
2022/03/17 11:19:34;;;;;;;3.85;2.08;;;20.60;51.20;;;;;;4989996;28;20196;-63
2022/03/17 11:22:10;;;;;;;3.55;1.88;;;20.60;51.20;;;;;;4989100;28;20201;-62
2022/03/17 11:24:41;;;;;;;3.53;1.92;;;20.60;51.20;;;;;;4988917;28;20193;-59
2022/03/17 11:27:14;;;;;;;2.08;1.77;;;20.60;51.20;;;;;;4989176;28;20300;-63
2022/03/17 11:29:48;;;;;;;2.72;2.42;;;20.60;51.20;;;;;;4989191;28;20283;-61
2022/03/17 11:32:32;;;;;;;3.80;1.92;;;20.60;51.20;;;;;;4989107;28;20194;-62
2022/03/17 11:35:18;;;;;;;2.47;1.88;;;20.50;51.20;;;;;;4988612;28;20201;-56
2022/03/17 11:37:49;;;;;;;3.42;2.00;;;20.50;51.20;;;;;;4987967;28;20225;-62
2022/03/17 11:40:21;;;;;;;2.90;2.05;;;20.50;51.20;;;;;;4988500;28;20785;-62
2022/03/17 11:43:07;;;;;;;2.90;2.05;;;20.50;51.20;;;;;;4988777;28;20189;-62
2022/03/17 11:45:40;;;;;;;5.15;2.20;;;20.50;51.20;;;;;;4988567;28;20197;-62
2022/03/17 11:48:17;;;;;;;2.75;1.83;;;20.50;51.20;;;;;;4988711;28;20201;-61
2022/03/17 11:50:52;;;;;;;2.42;1.70;;;20.50;51.20;;;;;;4988378;28;20197;-62
2022/03/17 11:53:39;;;;;;;2.83;2.05;;;20.50;51.20;;;;;;4988678;28;20201;-65
2022/03/17 11:56:12;;;;;;;2.97;2.00;;;20.40;51.20;;;;;;4988988;28;20296;-64
2022/03/17 11:58:47;;;;;;;3.88;1.88;;;20.40;51.20;;;;;;4990097;28;20285;-61
2022/03/17 12:01:27;;;;;;;2.45;1.73;;;20.40;51.20;;;;;;4989939;28;20197;-63
2022/03/17 12:03:59;;;;;;;3.35;1.92;;;20.40;51.20;;;;;;4991008;28;20203;-63
2022/03/17 12:06:32;;;;;;;2.42;1.90;;;20.40;51.20;;;;;;4990422;28;20221;-62
2022/03/17 12:09:03;;;;;;;3.15;2.17;;;20.40;51.30;;;;;;4989217;28;20217;-63
2022/03/17 12:11:38;;;;;;;3.28;2.10;;;20.40;51.30;;;;;;4990200;28;20201;-64
2022/03/17 12:14:23;;;;;;;2.60;2.08;;;20.30;51.20;;;;;;4990141;28;20205;-63
2022/03/17 12:16:55;;;;;;;2.70;1.65;;;20.30;51.30;;;;;;4989989;28;20744;-64
2022/03/17 12:19:34;;;;;;;2.28;1.80;;;20.30;51.20;;;;;;4990338;28;20193;-66
2022/03/17 12:22:23;;;;;;;1.77;1.58;;;20.30;51.20;;;;;;4990519;28;20209;-65
2022/03/17 12:24:54;;;;;;;2.13;1.70;;;20.30;51.30;;;;;;4990502;28;20205;-65
2022/03/17 12:27:30;;;;;;;2.08;1.67;;;20.30;51.20;;;;;;4990611;28;20268;-62
2022/03/17 12:30:04;;;;;;;2.03;1.70;;;20.30;51.30;;;;;;4990368;28;20700;-62
2022/03/17 12:32:36;;;;;;;1.77;1.42;;;20.30;51.30;;;;;;4989684;28;20194;-62
2022/03/17 12:35:08;;;;;;;2.40;1.55;;;20.20;51.30;;;;;;4989712;28;20202;-62
2022/03/17 12:37:41;;;;;;;2.30;1.85;;;20.20;51.30;;;;;;4990352;28;20217;-63
2022/03/17 12:40:16;;;;;;;2.03;1.75;;;20.20;51.30;;;;;;4990126;28;20202;-61
2022/03/17 12:42:47;;;;;;;1.92;1.42;;;20.20;51.30;;;;;;4990063;28;20271;-60
2022/03/17 12:45:19;;;;;;;3.53;1.88;;;20.20;51.30;;;;;;4991062;28;20199;-62
2022/03/17 12:47:56;;;;;;;2.53;1.70;;;20.20;51.30;;;;;;4993392;28;20888;-62
2022/03/17 12:50:30;;;;;;;2.67;1.70;;;20.20;51.40;;;;;;4990633;28;20229;-63
2022/03/17 12:53:03;;;;;;;2.17;1.70;;;20.10;51.30;;;;;;4993451;28;20198;-64
2022/03/17 12:55:33;;;;;;;2.65;1.95;;;20.10;51.30;;;;;;4993046;28;20194;-64
2022/03/17 12:58:04;;;;;;;2.10;1.58;;;20.10;51.40;;;;;;4993943;28;20198;-63
2022/03/17 13:00:35;;;;;;;2.67;1.55;;;20.10;51.40;;;;;;4994456;28;20296;-63
2022/03/17 13:03:05;;;;;;;2.65;1.67;;;20.10;51.40;;;;;;4993287;28;20197;-58
2022/03/17 13:08:26;;;;;;;2.38;1.70;;;20.10;51.40;;;;;;4993091;28;20288;-63
2022/03/17 13:16:32;;;;;;;2.30;1.63;;;20.00;51.40;;;;;;4993213;28;20224;-61
2022/03/17 13:19:02;;;;;;;1.88;1.40;;;20.00;51.40;;;;;;4993443;28;20205;-65
2022/03/17 13:21:35;;;;;;;2.38;1.52;;;20.00;51.40;;;;;;4993648;28;20201;-65
2022/03/17 13:24:20;;;;;;;2.38;1.50;;;20.00;51.40;;;;;;4993439;28;20197;-65
2022/03/17 13:27:01;;;;;;;1.75;1.40;;;19.90;51.40;;;;;;4993327;28;20581;-64
2022/03/17 13:29:34;;;;;;;2.42;1.70;;;19.90;51.30;;;;;;4993130;28;20661;-64
2022/03/17 13:32:07;;;;;;;1.73;1.50;;;19.90;51.40;;;;;;4992416;28;20285;-54
2022/03/17 13:34:38;;;;;;;1.70;1.55;;;19.90;51.40;;;;;;4992496;28;20209;-61
2022/03/17 13:37:16;;;;;;;2.10;1.50;;;19.90;51.40;;;;;;4992886;28;20260;-61
2022/03/17 13:39:48;;;;;;;1.90;1.52;;;19.90;51.50;;;;;;4993176;28;20740;-62